Time;durP1;ratioP1;P1;durP2;ratioP2;P2;SDS_P1;SDS_P2;PMS_P1;PMS_P2;Temp;Humidity;BMP_temperature;BMP_pressure;BME280_temperature;BME280_humidity;BME280_pressure;Samples;Min_cycle;Max_cycle;Signal;HPM_P1;HPM_P2
2022/04/28 10:50:32;;;;;;;;;39.50;32.75;;;;;18.63;41.32;102039.63;5163041;27;46479;-80
2022/04/28 10:53:03;;;;;;;;;33.50;29.50;;;;;19.30;39.64;102092.84;5155152;27;45377;-79
2022/04/28 10:55:33;;;;;;;;;21.33;21.33;;;;;19.46;36.33;102076.69;5150037;27;45634;-78
2022/04/28 10:58:25;;;;;;;;;31.00;25.00;;;;;19.65;36.71;102053.38;5135593;27;45471;-78
2022/04/28 11:00:56;;;;;;;;;20.67;18.00;;;;;20.03;34.39;102075.88;5146256;27;45480;-77
2022/04/28 11:03:48;;;;;;;;;20.67;19.33;;;;;20.13;32.97;102082.78;5153740;27;45400;-76
2022/04/28 11:06:16;;;;;;;;;17.67;14.67;;;;;20.16;32.42;102073.00;5167643;27;45428;-77
2022/04/28 11:08:56;;;;;;;;;15.00;14.33;;;;;19.41;34.22;101937.72;5158706;27;45558;-75
2022/04/28 11:11:25;;;;;;;;;14.33;13.67;;;;;20.39;32.76;102075.28;5155015;27;45603;-75
2022/04/28 11:13:59;;;;;;;;;17.00;13.67;;;;;20.51;32.08;102080.38;5146028;27;45529;-77
2022/04/28 11:16:26;;;;;;;;;24.33;16.00;;;;;20.60;31.72;102079.38;5154473;27;45783;-78
2022/04/28 11:18:54;;;;;;;;;13.00;12.33;;;;;20.30;31.24;102013.31;5153055;27;46537;-77
2022/04/28 11:21:22;;;;;;;;;12.33;12.33;;;;;20.59;31.30;102057.19;5154950;27;45735;-79
2022/04/28 11:23:48;;;;;;;;;12.67;12.67;;;;;20.52;31.50;102023.56;5154253;27;45336;-81
2022/04/28 11:26:14;;;;;;;;;15.33;12.33;;;;;20.80;31.65;102047.03;5152576;27;45608;-81
2022/04/28 11:28:42;;;;;;;;;15.00;12.67;;;;;21.11;29.88;102076.59;5134472;27;45621;-75
2022/04/28 11:31:13;;;;;;;;;11.00;10.00;;;;;20.85;30.26;102031.84;5152476;27;45465;-77
2022/04/28 11:33:42;;;;;;;;;11.00;10.67;;;;;20.96;29.32;102030.72;5133736;27;45639;-75
2022/04/28 11:36:15;;;;;;;;;13.67;12.00;;;;;21.20;29.57;102051.56;5153549;27;45349;-78
2022/04/28 11:38:49;;;;;;;;;14.33;13.67;;;;;21.41;29.90;102076.91;5133215;27;45614;-77
2022/04/28 11:41:14;;;;;;;;;12.33;12.33;;;;;21.41;29.79;102079.56;5146188;27;47816;-78
2022/04/28 11:43:40;;;;;;;;;13.00;11.33;;;;;21.16;30.19;102066.72;5133537;27;45585;-77
2022/04/28 11:46:07;;;;;;;;;11.67;11.00;;;;;21.28;30.09;102095.75;5153416;27;45466;-80
2022/04/28 11:48:34;;;;;;;;;12.33;12.33;;;;;21.24;29.91;102098.53;5152733;27;45553;-77
2022/04/28 11:51:07;;;;;;;;;15.00;12.67;;;;;21.11;29.51;102077.47;5152053;27;45359;-75
2022/04/28 11:53:41;;;;;;;;;11.33;11.33;;;;;20.93;29.50;102053.88;5153028;27;45737;-81
2022/04/28 11:56:20;;;;;;;;;12.33;12.33;;;;;21.08;29.89;102088.19;5144620;27;45496;-79
2022/04/28 11:58:51;;;;;;;;;12.00;12.00;;;;;21.03;29.42;102084.75;5132674;27;45509;-79
2022/04/28 12:01:21;;;;;;;;;13.00;13.00;;;;;20.37;29.38;101975.97;5141853;27;45458;-78
2022/04/28 12:03:55;;;;;;;;;17.00;13.00;;;;;20.73;29.64;102033.84;5137878;27;45498;-79
2022/04/28 12:06:22;;;;;;;;;12.67;12.67;;;;;20.73;29.65;102027.63;5136593;27;45341;-79
2022/04/28 12:08:55;;;;;;;;;16.00;13.67;;;;;21.13;29.68;102080.97;5138297;27;45719;-76
2022/04/28 12:14:22;;;;;;;;;13.00;11.00;;;;;21.12;29.69;102039.28;5134009;27;45330;-76
2022/04/28 12:19:51;;;;;;;;;13.00;13.00;;;;;21.55;29.14;102075.66;5140667;27;45449;-77
2022/04/28 12:22:28;;;;;;;;;10.67;10.33;;;;;21.59;29.05;102082.69;5113740;27;47942;-77
2022/04/28 12:24:54;;;;;;;;;16.33;13.33;;;;;21.69;29.15;102082.47;5136235;27;46406;-76
2022/04/28 12:27:21;;;;;;;;;10.00;9.00;;;;;21.60;29.14;102057.78;5137629;27;45472;-79
2022/04/28 12:29:58;;;;;;;;;9.33;9.00;;;;;21.86;28.61;102074.97;5141458;27;45287;-77
2022/04/28 12:32:25;;;;;;;;;11.00;11.00;;;;;21.83;28.35;102075.03;5135310;27;45545;-78
2022/04/28 12:34:58;;;;;;;;;10.33;9.67;;;;;21.82;27.50;102075.94;5142028;27;45495;-79
2022/04/28 12:37:26;;;;;;;;;12.00;11.00;;;;;21.60;27.42;102043.56;5139832;27;45514;-78
2022/04/28 12:39:59;;;;;;;;;11.00;10.00;;;;;21.59;27.51;102025.81;5138706;27;45373;-78
2022/04/28 12:42:28;;;;;;;;;10.33;9.67;;;;;21.55;27.60;102002.81;5140314;27;45568;-79
2022/04/28 12:44:54;;;;;;;;;11.33;9.00;;;;;21.47;27.42;101980.78;5139878;27;45594;-78
2022/04/28 12:47:20;;;;;;;;;5.00;4.67;;;;;21.75;27.94;102035.19;5139599;27;45823;-77
2022/04/28 12:49:48;;;;;;;;;13.67;10.67;;;;;21.81;27.63;102032.41;5142225;27;45279;-80
2022/04/28 12:52:28;;;;;;;;;11.00;11.00;;;;;21.92;27.83;102056.13;5140177;27;45415;-78
2022/04/28 12:55:07;;;;;;;;;10.00;9.00;;;;;22.05;27.87;102070.06;5142262;27;45747;-77
2022/04/28 12:57:33;;;;;;;;;13.67;11.33;;;;;21.87;28.16;102027.81;5117836;27;45896;-77
2022/04/28 13:00:05;;;;;;;;;9.67;9.67;;;;;22.19;28.15;102062.59;5138687;27;45493;-75
2022/04/28 13:02:32;;;;;;;;;9.00;9.00;;;;;22.27;28.28;102066.88;5138993;27;45397;-77
2022/04/28 13:05:13;;;;;;;;;9.33;9.33;;;;;22.33;27.88;102064.03;5140611;27;45498;-77
2022/04/28 13:07:42;;;;;;;;;11.33;8.33;;;;;22.39;26.87;102064.75;5144750;27;45475;-78
2022/04/28 13:10:15;;;;;;;;;8.33;7.67;;;;;22.38;27.02;102065.69;5139509;27;45412;-79
2022/04/28 13:12:40;;;;;;;;;9.33;9.33;;;;;22.40;26.97;102070.97;5140010;27;46136;-79
2022/04/28 13:15:07;;;;;;;;;11.67;10.00;;;;;22.39;27.07;102064.75;5127332;27;45181;-77
2022/04/28 13:17:33;;;;;;;;;10.00;8.33;;;;;21.77;27.13;101969.38;5142482;27;45980;-76
2022/04/28 13:19:59;;;;;;;;;11.00;10.00;;;;;22.18;26.80;102039.47;5122164;27;45780;-78
2022/04/28 13:22:25;;;;;;;;;11.33;10.00;;;;;22.25;26.76;102064.25;5139552;27;45372;-78
2022/04/28 13:24:55;;;;;;;;;13.33;10.00;;;;;22.26;27.19;102059.78;5113245;27;45963;-79
2022/04/28 13:27:20;;;;;;;;;10.67;10.00;;;;;22.01;27.10;102015.88;5138623;27;45516;-75
2022/04/28 13:29:46;;;;;;;;;10.33;10.33;;;;;22.29;25.77;102065.91;5139410;27;45542;-77
2022/04/28 13:32:12;;;;;;;;;8.67;7.33;;;;;22.18;25.88;102062.59;5139324;27;46189;-77
2022/04/28 13:34:43;;;;;;;;;8.33;8.33;;;;;21.91;25.67;102017.03;5138673;27;45656;-77
2022/04/28 13:37:09;;;;;;;;;7.33;7.33;;;;;22.08;25.95;102045.09;5122278;27;45439;-74
2022/04/28 13:39:35;;;;;;;;;6.67;6.67;;;;;22.17;26.14;102066.22;5136361;27;45410;-78
2022/04/28 13:42:00;;;;;;;;;7.00;7.00;;;;;22.24;26.30;102059.81;5140755;27;45549;-77
2022/04/28 13:44:27;;;;;;;;;12.00;9.67;;;;;22.28;26.06;102047.25;5145592;27;45574;-77
2022/04/28 13:46:53;;;;;;;;;9.33;8.00;;;;;22.37;25.80;102055.91;5139630;27;45525;-75
2022/04/28 13:49:19;;;;;;;;;8.33;8.33;;;;;22.04;25.09;101998.91;5139528;27;46074;-73
2022/04/28 13:51:45;;;;;;;;;9.00;8.67;;;;;22.12;25.28;102020.09;5131632;27;47512;-73
2022/04/28 13:54:13;;;;;;;;;8.00;8.00;;;;;22.19;25.40;102033.22;5147806;27;46435;-76
2022/04/28 13:56:39;;;;;;;;;7.67;7.33;;;;;22.36;25.24;102048.81;5141949;27;45498;-77
2022/04/28 13:59:05;;;;;;;;;6.67;6.67;;;;;22.51;25.58;102063.56;5136238;27;45262;-73
2022/04/28 14:01:33;;;;;;;;;8.67;8.00;;;;;22.36;24.60;102011.47;5140556;27;45760;-74
2022/04/28 14:04:00;;;;;;;;;9.00;8.00;;;;;22.35;24.28;102008.81;5121091;27;45465;-76
2022/04/28 14:06:29;;;;;;;;;9.33;8.00;;;;;22.61;24.42;102054.41;5121454;27;45534;-73
2022/04/28 14:09:04;;;;;;;;;8.00;8.00;;;;;22.53;24.15;102035.03;5139867;27;45458;-72
2022/04/28 14:11:35;;;;;;;;;8.00;7.33;;;;;22.46;24.54;102021.88;5128175;27;46125;-73
2022/04/28 14:14:04;;;;;;;;;8.00;8.00;;;;;22.26;24.76;101977.03;5101277;27;45489;-74
2022/04/28 14:16:36;;;;;;;;;8.33;8.00;;;;;22.63;24.50;102041.84;5134450;27;45479;-77
2022/04/28 14:19:09;;;;;;;;;11.00;8.00;;;;;22.50;24.84;102021.75;5139903;27;45333;-76
2022/04/28 14:21:38;;;;;;;;;9.00;7.33;;;;;22.52;24.84;102022.59;5138800;27;45708;-77
2022/04/28 14:24:12;;;;;;;;;10.33;9.00;;;;;22.60;24.54;102033.94;5137688;27;45533;-81
2022/04/28 14:26:44;;;;;;;;;7.33;7.33;;;;;22.49;24.51;102020.00;5139140;27;45258;-79
2022/04/28 14:29:15;;;;;;;;;10.67;8.67;;;;;22.39;24.40;102007.81;5121950;27;45547;-77
2022/04/28 14:31:47;;;;;;;;;5.67;5.67;;;;;22.57;25.13;102038.50;5118643;27;46480;-76
2022/04/28 14:34:24;;;;;;;;;7.67;7.33;;;;;22.60;24.40;102035.72;5118757;27;45291;-78
2022/04/28 14:36:52;;;;;;;;;10.00;7.33;;;;;22.53;24.28;102027.00;5119614;27;45563;-76
2022/04/28 14:39:18;;;;;;;;;7.00;7.00;;;;;22.53;24.24;102023.47;5099513;27;45374;-73
2022/04/28 14:41:44;;;;;;;;;7.67;7.33;;;;;22.55;24.36;102035.84;5137960;27;45982;-78
2022/04/28 14:44:10;;;;;;;;;9.00;8.67;;;;;22.57;24.68;102035.84;5140727;27;45445;-79
2022/04/28 14:46:36;;;;;;;;;11.00;7.00;;;;;22.50;24.39;102031.56;5111179;27;45609;-74
2022/04/28 14:54:30;;;;;;;;;8.00;8.00;;;;;22.42;25.13;102032.66;5120760;27;45855;-73
2022/04/28 14:56:55;;;;;;;;;7.00;7.00;;;;;22.41;24.91;102033.56;5118343;27;45447;-74
2022/04/28 14:59:27;;;;;;;;;10.00;8.33;;;;;22.37;25.11;102018.53;5138122;27;45482;-74
2022/04/28 15:01:52;;;;;;;;;8.33;8.33;;;;;22.32;25.10;102008.91;5109709;27;47681;-78
2022/04/28 15:04:18;;;;;;;;;8.00;8.00;;;;;22.36;24.70;102023.94;5119107;27;45667;-76
2022/04/28 15:06:44;;;;;;;;;8.67;8.67;;;;;22.30;24.82;102029.41;5100688;27;45498;-74
2022/04/28 15:09:10;;;;;;;;;8.00;7.67;;;;;22.29;24.99;102035.69;5118476;27;45509;-75
2022/04/28 15:11:36;;;;;;;;;8.67;8.67;;;;;22.29;24.65;102025.88;5118350;27;46368;-76
2022/04/28 15:14:02;;;;;;;;;8.00;8.00;;;;;22.18;24.63;102014.56;5128342;27;45562;-74
2022/04/28 15:16:28;;;;;;;;;8.33;6.00;;;;;22.21;24.44;102023.44;5122364;27;45564;-72
2022/04/28 15:18:57;;;;;;;;;6.67;6.67;;;;;22.14;24.24;102003.13;5128968;27;45483;-77
2022/04/28 15:21:23;;;;;;;;;8.67;8.67;;;;;22.23;24.25;102026.94;5142951;27;46559;-75
2022/04/28 15:23:49;;;;;;;;;7.00;7.00;;;;;22.09;24.06;101990.81;5143757;27;45381;-75
2022/04/28 15:26:17;;;;;;;;;7.00;7.00;;;;;21.98;24.08;101964.41;5140118;27;45651;-79
2022/04/28 15:28:42;;;;;;;;;7.00;7.00;;;;;22.32;24.55;102022.25;5135868;27;45403;-76
2022/04/28 15:31:09;;;;;;;;;7.33;7.00;;;;;22.10;25.59;101969.44;5135660;27;45919;-77
2022/04/28 15:33:34;;;;;;;;;7.00;7.00;;;;;21.90;25.09;101913.06;5131979;27;45483;-74
2022/04/28 15:36:00;;;;;;;;;6.33;4.33;;;;;21.95;24.98;101922.69;5135839;27;46477;-77
2022/04/28 15:38:25;;;;;;;;;8.33;8.00;;;;;22.49;24.54;102013.78;5134515;27;45885;-76
2022/04/28 15:41:07;;;;;;;;;9.67;8.00;;;;;22.28;25.09;101983.22;5118208;27;45376;-76
2022/04/28 15:43:35;;;;;;;;;8.00;8.00;;;;;22.49;24.13;102001.31;5130601;27;45554;-79
2022/04/28 15:46:00;;;;;;;;;7.00;7.00;;;;;22.47;24.29;102003.16;5138934;27;45262;-79
2022/04/28 15:48:26;;;;;;;;;8.33;8.00;;;;;22.03;24.47;101926.03;5124177;27;45566;-79
2022/04/28 15:50:52;;;;;;;;;7.00;7.00;;;;;21.95;25.25;101903.16;5130409;27;45444;-80
2022/04/28 15:53:17;;;;;;;;;10.00;9.00;;;;;22.64;24.77;102008.03;5135778;27;45435;-77
2022/04/28 15:55:43;;;;;;;;;9.00;9.00;;;;;22.33;24.86;101947.50;5122551;27;45283;-75
2022/04/28 15:58:09;;;;;;;;;8.00;8.00;;;;;22.23;25.03;101930.88;5142964;27;45401;-75
2022/04/28 16:00:34;;;;;;;;;6.33;6.33;;;;;22.65;24.66;102010.66;5127588;27;45997;-74
2022/04/28 16:03:00;;;;;;;;;8.00;8.00;;;;;21.97;23.93;101895.97;5104146;27;45646;-74
2022/04/28 16:05:26;;;;;;;;;9.00;7.00;;;;;22.53;23.97;102004.78;5133222;27;45333;-75
2022/04/28 16:07:56;;;;;;;;;8.00;7.67;;;;;22.42;24.34;102000.63;5128911;27;45405;-75
2022/04/28 16:10:22;;;;;;;;;8.00;8.00;;;;;22.04;24.21;101956.22;5133053;27;46518;-73
2022/04/28 16:12:48;;;;;;;;;8.00;8.00;;;;;22.10;24.73;101982.75;5132852;27;45470;-73
2022/04/28 16:15:14;;;;;;;;;8.00;8.00;;;;;22.15;25.09;101998.66;5128220;27;45568;-75
2022/04/28 16:17:40;;;;;;;;;10.00;8.33;;;;;22.20;26.24;101997.63;5138915;27;45642;-75
2022/04/28 16:20:06;;;;;;;;;9.33;8.00;;;;;22.20;27.10;101992.31;5138485;27;46399;-76
2022/04/28 16:22:33;;;;;;;;;7.67;7.67;;;;;22.34;27.20;102004.41;5139056;27;46045;-75
2022/04/28 16:25:00;;;;;;;;;8.00;8.00;;;;;22.36;26.86;102008.78;5139363;27;45430;-75
2022/04/28 16:27:26;;;;;;;;;10.00;8.33;;;;;22.35;26.08;102008.81;5143063;27;45229;-75
2022/04/28 16:29:52;;;;;;;;;7.00;7.00;;;;;22.16;26.16;101981.72;5137003;27;46067;-73
2022/04/28 16:32:18;;;;;;;;;8.00;8.00;;;;;21.93;25.86;101942.34;5106238;27;45310;-74
2022/04/28 16:34:45;;;;;;;;;9.00;8.00;;;;;22.21;25.66;102004.75;5124604;27;45565;-75
2022/04/28 16:37:11;;;;;;;;;4.00;4.00;;;;;21.94;25.75;101962.75;5140316;27;45518;-75
2022/04/28 16:39:45;;;;;;;;;6.67;6.67;;;;;21.97;26.19;101979.56;5137379;27;46430;-74
2022/04/28 16:42:10;;;;;;;;;12.00;9.00;;;;;21.58;26.75;101917.44;5124748;27;45496;-75
2022/04/28 16:44:37;;;;;;;;;9.67;8.00;;;;;21.42;26.92;101887.63;5129268;27;45393;-77
2022/04/28 16:47:03;;;;;;;;;10.33;10.33;;;;;21.91;27.41;101981.50;5124871;27;45530;-74
2022/04/28 16:49:29;;;;;;;;;9.00;8.33;;;;;21.87;27.28;101979.81;5100511;27;46102;-73
2022/04/28 16:51:57;;;;;;;;;9.33;9.00;;;;;21.89;27.12;101991.31;5125611;27;45528;-77
2022/04/28 16:54:30;;;;;;;;;12.00;10.00;;;;;21.78;26.82;101995.16;5146760;27;45323;-77
2022/04/28 16:56:56;;;;;;;;;8.00;8.00;;;;;21.75;26.84;101999.66;5131304;27;45629;-76
2022/04/28 16:59:22;;;;;;;;;8.67;8.00;;;;;21.70;26.81;101993.56;5141697;27;45388;-76
2022/04/28 17:01:49;;;;;;;;;8.33;8.00;;;;;21.36;26.96;101941.91;5123277;27;45492;-75
2022/04/28 17:04:24;;;;;;;;;8.33;8.33;;;;;21.64;27.18;101991.03;5133278;27;45690;-74
2022/04/28 17:06:52;;;;;;;;;9.67;9.00;;;;;21.54;27.70;101983.25;5129666;27;45555;-77
2022/04/28 17:09:20;;;;;;;;;8.00;8.00;;;;;21.54;27.98;101974.41;5142274;27;46551;-77
2022/04/28 17:11:57;;;;;;;;;12.00;9.67;;;;;21.58;28.19;101994.75;5142705;27;45272;-76
2022/04/28 17:14:25;;;;;;;;;8.67;8.67;;;;;21.36;28.64;101965.03;5141370;27;45293;-78
2022/04/28 17:16:52;;;;;;;;;10.67;10.00;;;;;21.48;28.85;101986.09;5122121;27;45509;-74
2022/04/28 17:19:19;;;;;;;;;8.00;8.00;;;;;21.48;29.01;101978.09;5139229;27;45418;-75
2022/04/28 17:21:47;;;;;;;;;9.67;9.00;;;;;21.61;29.03;102005.31;5132770;27;45436;-75
2022/04/28 17:24:19;;;;;;;;;10.33;9.33;;;;;21.56;29.26;102000.09;5119882;27;45303;-77
2022/04/28 17:26:48;;;;;;;;;10.33;9.67;;;;;21.56;29.52;102016.09;5119810;27;45263;-76
2022/04/28 17:29:22;;;;;;;;;13.33;10.00;;;;;21.51;29.32;102012.66;5118970;27;46229;-77
2022/04/28 17:31:51;;;;;;;;;10.00;10.00;;;;;21.47;29.13;102020.78;5132100;27;45382;-75
2022/04/28 17:34:18;;;;;;;;;13.33;10.00;;;;;21.38;29.21;102011.19;5129549;27;45509;-77
2022/04/28 17:36:43;;;;;;;;;10.33;9.67;;;;;21.36;29.34;102008.53;5140604;27;45420;-75
2022/04/28 17:39:11;;;;;;;;;9.67;9.67;;;;;21.31;29.28;102010.44;5140616;27;45408;-77
2022/04/28 17:41:37;;;;;;;;;9.00;9.00;;;;;21.42;29.67;102030.66;5139564;27;45416;-77
2022/04/28 17:44:05;;;;;;;;;12.67;11.00;;;;;21.42;29.33;102030.66;5121040;27;45410;-76
2022/04/28 17:46:35;;;;;;;;;5.33;5.33;;;;;21.12;29.33;101990.44;5120982;27;45385;-75
2022/04/28 17:49:01;;;;;;;;;13.33;13.00;;;;;21.26;29.36;102007.00;5122483;27;46438;-76
2022/04/28 17:51:27;;;;;;;;;16.33;13.00;;;;;21.11;29.12;101991.34;5099958;27;45592;-73
2022/04/28 17:53:58;;;;;;;;;11.00;10.00;;;;;21.31;29.45;102029.09;5119602;27;45277;-75
2022/04/28 18:01:59;;;;;;;;;11.33;9.00;;;;;21.23;29.40;102038.16;5110958;27;45421;-73
2022/04/28 18:04:25;;;;;;;;;13.00;10.33;;;;;21.16;29.13;102027.63;5138854;27;45361;-74
2022/04/28 18:06:51;;;;;;;;;2.67;1.67;;;;;21.07;29.27;102026.94;5121328;27;45507;-71
2022/04/28 18:09:17;;;;;;;;;12.33;10.33;;;;;21.04;29.59;102033.22;5131165;27;45627;-75
2022/04/28 18:11:47;;;;;;;;;10.33;9.00;;;;;20.99;29.88;102024.44;5132930;27;45585;-74
2022/04/28 18:15:17;;;;;;;;;11.33;9.33;;;;;20.91;29.43;102037.94;5138984;27;45360;-73
2022/04/28 18:18:01;;;;;;;;;11.67;11.00;;;;;20.85;30.11;102042.50;5042409;28;45585;-77
2022/04/28 18:20:27;;;;;;;;;11.00;9.33;;;;;20.74;31.19;102029.41;5119873;27;46194;-72
2022/04/28 18:22:56;;;;;;;;;13.00;12.33;;;;;20.59;30.68;102008.41;5117222;27;45370;-79
2022/04/28 18:25:22;;;;;;;;;13.67;13.67;;;;;20.52;32.13;101988.97;5117785;27;45359;-75
2022/04/28 18:27:48;;;;;;;;;51.00;42.00;;;;;20.85;32.73;102045.16;5118241;27;45332;-72
2022/04/28 18:30:14;;;;;;;;;34.25;31.25;;;;;20.94;31.73;102052.97;5117181;27;45623;-73
2022/04/28 18:32:40;;;;;;;;;27.67;24.67;;;;;20.73;32.46;102028.50;5117979;27;45402;-75
2022/04/28 18:35:11;;;;;;;;;20.00;18.00;;;;;20.96;31.07;102061.81;5121067;27;45614;-72
2022/04/28 18:45:57;;;;;;;;;67.75;49.00;;;;;20.72;33.81;102069.38;5131123;27;45453;-71
2022/04/28 18:48:25;;;;;;;;;148.00;130.67;;;;;20.71;33.58;102064.94;5127152;27;45524;-74
2022/04/28 18:50:52;;;;;;;;;67.00;51.00;;;;;20.72;32.00;102065.84;5119994;27;45327;-74
2022/04/28 18:53:18;;;;;;;;;23.67;19.67;;;;;20.59;31.19;102057.19;5118516;27;45325;-77
2022/04/28 18:55:44;;;;;;;;;20.33;18.33;;;;;20.38;31.44;102037.13;5119547;27;45516;-75
2022/04/28 18:58:09;;;;;;;;;12.67;12.67;;;;;20.68;31.17;102088.97;5140788;27;45553;-74
2022/04/28 19:00:36;;;;;;;;;15.33;14.33;;;;;20.66;31.83;102088.09;5141192;27;45512;-77
2022/04/28 19:03:05;;;;;;;;;14.67;13.00;;;;;20.52;31.48;102063.50;5139902;27;45458;-79
2022/04/28 19:05:32;;;;;;;;;12.67;11.00;;;;;20.53;31.76;102067.94;5135587;27;45403;-76
2022/04/28 19:08:05;;;;;;;;;14.33;11.67;;;;;20.59;32.38;102078.47;5117983;27;45392;-79
2022/04/28 19:10:34;;;;;;;;;12.33;11.67;;;;;20.45;31.73;102061.84;5138904;27;46587;-77
2022/04/28 19:13:04;;;;;;;;;11.33;11.33;;;;;20.67;31.60;102105.84;5108265;27;45488;-77
2022/04/28 19:15:31;;;;;;;;;16.33;14.33;;;;;20.68;33.17;102112.91;5103976;27;45461;-80
2022/04/28 19:17:57;;;;;;;;;16.33;15.33;;;;;20.43;32.58;102071.63;5128795;27;45568;-77
2022/04/28 19:20:23;;;;;;;;;14.00;14.00;;;;;20.05;31.93;102009.34;5112771;27;45670;-81
2022/04/28 19:22:58;;;;;;;;;12.67;11.00;;;;;20.44;32.19;102094.69;5137461;27;45963;-79
2022/04/28 19:25:33;;;;;;;;;11.33;10.67;;;;;20.64;31.91;102113.88;5152610;27;45438;-80
2022/04/28 19:28:02;;;;;;;;;15.33;13.33;;;;;20.39;31.81;102078.81;5146937;27;45427;-73
2022/04/28 19:30:28;;;;;;;;;13.00;11.00;;;;;20.51;32.20;102104.34;5136202;27;45997;-76
2022/04/28 19:32:54;;;;;;;;;13.33;12.00;;;;;20.51;31.75;102114.97;5128296;27;45306;-77
2022/04/28 19:35:20;;;;;;;;;11.67;10.33;;;;;20.57;31.97;102128.19;5141656;27;45646;-77
2022/04/28 19:37:46;;;;;;;;;15.67;12.33;;;;;20.53;31.98;102135.34;5146618;27;45453;-75
2022/04/28 19:40:16;;;;;;;;;12.00;11.00;;;;;20.32;31.82;102094.00;5135025;27;45495;-75
2022/04/28 19:42:41;;;;;;;;;12.67;12.67;;;;;20.33;32.04;102106.44;5133499;27;46103;-76
2022/04/28 19:45:12;;;;;;;;;16.67;14.00;;;;;20.29;32.05;102101.19;5115636;27;45541;-75
2022/04/28 19:47:39;;;;;;;;;16.67;15.33;;;;;20.46;32.08;102130.16;5140347;27;45764;-75
2022/04/28 19:50:06;;;;;;;;;16.00;14.33;;;;;20.44;32.05;102139.94;5119663;27;47747;-70
2022/04/28 19:52:34;;;;;;;;;15.67;14.00;;;;;20.37;32.48;102130.31;5121338;27;45406;-72
2022/04/28 19:55:00;;;;;;;;;15.67;13.67;;;;;20.32;32.71;102133.03;5142245;27;45464;-69
2022/04/28 19:57:29;;;;;;;;;15.67;14.67;;;;;20.33;32.57;102142.78;5142451;27;45755;-70
2022/04/28 19:59:55;;;;;;;;;17.67;15.33;;;;;20.31;32.47;102147.22;5141892;27;45470;-68
2022/04/28 20:02:24;;;;;;;;;17.67;15.33;;;;;20.31;32.46;102157.88;5142026;27;45633;-68
2022/04/28 20:04:53;;;;;;;;;20.00;17.33;;;;;20.29;32.63;102155.25;5123978;27;45460;-70
2022/04/28 20:07:32;;;;;;;;;20.33;19.00;;;;;20.29;32.81;102160.59;5141759;27;45838;-70
2022/04/28 20:09:58;;;;;;;;;22.33;18.67;;;;;20.23;33.32;102165.13;5122387;27;46270;-70
2022/04/28 20:12:33;;;;;;;;;17.67;16.67;;;;;20.22;33.26;102158.03;5141109;27;45264;-70
2022/04/28 20:15:00;;;;;;;;;16.67;13.33;;;;;20.27;32.69;102173.03;5141172;27;45507;-68
2022/04/28 20:17:26;;;;;;;;;18.00;14.33;;;;;20.22;32.94;102180.19;5141882;27;45407;-68
2022/04/28 20:19:53;;;;;;;;;17.33;15.33;;;;;20.19;33.08;102176.69;5139401;27;46435;-69
2022/04/28 20:22:20;;;;;;;;;15.33;14.67;;;;;19.95;32.83;102141.56;5139998;27;45388;-72
2022/04/28 20:24:49;;;;;;;;;16.00;13.33;;;;;20.08;33.63;102177.75;5117467;27;45525;-72
2022/04/28 20:27:22;;;;;;;;;13.33;13.33;;;;;20.07;33.59;102176.00;5119461;27;45294;-72
2022/04/28 20:29:49;;;;;;;;;14.00;14.00;;;;;20.06;33.80;102176.00;5124928;27;45433;-71
2022/04/28 20:32:14;;;;;;;;;17.67;14.33;;;;;20.01;34.10;102173.41;5124689;27;45527;-72
2022/04/28 20:34:40;;;;;;;;;15.67;15.67;;;;;19.83;34.37;102142.63;5132277;27;45479;-72
2022/04/28 20:37:08;;;;;;;;;14.33;12.67;;;;;19.86;34.71;102155.00;5135099;27;45589;-72
2022/04/28 20:39:35;;;;;;;;;13.33;13.33;;;;;19.97;35.06;102176.13;5139523;27;47377;-70
2022/04/28 20:42:01;;;;;;;;;17.00;14.67;;;;;19.94;35.13;102178.84;5141598;27;46170;-68
2022/04/28 20:44:27;;;;;;;;;18.67;17.33;;;;;19.77;35.93;102158.69;5122932;27;45446;-72
2022/04/28 20:46:53;;;;;;;;;14.33;13.00;;;;;19.78;36.24;102175.50;5140969;27;45397;-70
2022/04/28 20:49:19;;;;;;;;;14.33;14.33;;;;;19.73;36.44;102175.56;5140482;27;45490;-69
2022/04/28 20:51:44;;;;;;;;;15.00;15.00;;;;;19.71;36.47;102172.06;5141145;27;45552;-70
2022/04/28 20:54:11;;;;;;;;;17.33;14.00;;;;;19.54;36.72;102140.34;5142644;27;45443;-69
2022/04/28 20:56:37;;;;;;;;;14.00;13.33;;;;;19.73;36.87;102164.94;5144501;27;45344;-71
2022/04/28 20:59:02;;;;;;;;;18.33;16.33;;;;;19.72;37.31;102168.50;5145200;27;45482;-72
2022/04/28 21:01:28;;;;;;;;;18.33;16.33;;;;;19.59;37.34;102145.59;5144251;27;45238;-71
2022/04/28 21:03:53;;;;;;;;;17.33;13.67;;;;;19.56;37.38;102135.03;5143880;27;45388;-69
2022/04/28 21:06:19;;;;;;;;;17.33;16.00;;;;;19.61;37.50;102157.97;5144739;27;45372;-72
2022/04/28 21:08:45;;;;;;;;;18.67;16.33;;;;;19.46;38.08;102151.09;5144198;27;46140;-74
2022/04/28 21:11:11;;;;;;;;;16.33;16.00;;;;;19.45;38.30;102164.38;5143682;27;45801;-68
2022/04/28 21:13:37;;;;;;;;;16.33;16.33;;;;;19.41;38.29;102155.56;5118399;27;45418;-70
2022/04/28 21:16:03;;;;;;;;;19.00;17.00;;;;;19.44;38.60;102173.25;5132565;27;45529;-72
2022/04/28 21:18:29;;;;;;;;;20.00;15.67;;;;;19.36;38.56;102154.75;5140630;27;46287;-72
2022/04/28 21:20:55;;;;;;;;;19.33;18.67;;;;;19.27;38.58;102137.16;5133974;27;45562;-74
2022/04/28 21:23:22;;;;;;;;;20.00;16.00;;;;;19.36;38.76;102164.47;5141055;27;45196;-73
2022/04/28 21:25:54;;;;;;;;;22.00;18.67;;;;;19.33;38.63;102162.75;5141796;27;45412;-75
2022/04/28 21:28:20;;;;;;;;;23.00;20.00;;;;;19.28;39.22;102172.53;5140278;27;45468;-73
2022/04/28 21:30:47;;;;;;;;;24.00;19.67;;;;;19.22;39.41;102161.97;5120787;27;45439;-74
2022/04/28 21:33:13;;;;;;;;;22.00;18.67;;;;;19.18;39.41;102170.91;5139102;27;45395;-68
2022/04/28 21:35:39;;;;;;;;;27.00;20.00;;;;;19.16;39.40;102173.56;5119563;27;45349;-69
2022/04/28 21:38:06;;;;;;;;;24.33;22.33;;;;;19.08;39.53;102175.44;5119291;27;46123;-68
2022/04/28 21:40:34;;;;;;;;;18.67;18.67;;;;;19.04;39.89;102169.25;5119095;27;45388;-66
2022/04/28 21:43:01;;;;;;;;;27.75;24.75;;;;;18.98;39.79;102168.44;5119587;27;45295;-69
2022/04/28 21:45:26;;;;;;;;;30.75;27.00;;;;;18.92;40.08;102171.16;5119978;27;45293;-73
2022/04/28 21:47:52;;;;;;;;;30.50;24.75;;;;;18.69;40.03;102152.78;5118941;27;45545;-77
2022/04/28 21:50:18;;;;;;;;;27.67;22.33;;;;;18.83;40.13;102180.09;5118857;27;45981;-69
2022/04/28 21:52:45;;;;;;;;;24.67;18.67;;;;;18.79;40.11;102167.75;5119155;27;45360;-71
2022/04/28 21:55:12;;;;;;;;;25.00;22.00;;;;;18.86;40.00;102182.72;5119210;27;45897;-66
2022/04/28 21:57:39;;;;;;;;;24.00;22.00;;;;;18.78;40.00;102164.22;5136235;27;46653;-71
2022/04/28 22:00:30;;;;;;;;;22.25;20.50;;;;;18.82;40.15;102175.69;5120640;27;45456;-69
2022/04/28 22:02:56;;;;;;;;;26.25;21.75;;;;;18.74;39.84;102166.88;5125785;27;45373;-72
2022/04/28 22:13:35;;;;;;;;;27.75;24.25;;;;;18.74;39.98;102196.06;5140294;27;45359;-69
2022/04/28 22:16:01;;;;;;;;;31.75;24.50;;;;;18.65;40.27;102191.75;5140994;27;45380;-67
2022/04/28 22:18:28;;;;;;;;;25.00;23.67;;;;;18.65;40.51;102197.91;5139342;27;45985;-68
2022/04/28 22:20:54;;;;;;;;;22.67;21.00;;;;;18.72;40.23;102201.41;5139218;27;45352;-67
2022/04/28 22:23:20;;;;;;;;;28.67;23.00;;;;;18.65;40.25;102191.75;5139522;27;45324;-67
2022/04/28 22:25:46;;;;;;;;;23.00;21.00;;;;;18.70;40.01;102197.88;5139690;27;45401;-69
2022/04/28 22:28:12;;;;;;;;;27.00;21.67;;;;;18.64;40.12;102187.31;5139173;27;45255;-68
2022/04/28 22:30:38;;;;;;;;;23.25;21.50;;;;;18.73;40.19;102204.94;5139088;27;45459;-70
2022/04/28 22:33:05;;;;;;;;;20.33;19.00;;;;;18.77;40.17;102212.00;5138280;27;45310;-67
2022/04/28 22:35:31;;;;;;;;;23.67;19.67;;;;;18.81;40.08;102211.94;5118923;27;45459;-72
2022/04/28 22:37:58;;;;;;;;;21.33;19.00;;;;;18.78;40.10;102198.72;5118171;27;45475;-73
2022/04/28 22:40:24;;;;;;;;;18.33;16.67;;;;;18.88;40.10;102209.25;5118223;27;45662;-73
2022/04/28 22:42:50;;;;;;;;;25.33;21.33;;;;;18.76;40.20;102181.00;5118091;27;45486;-72